sensor_id;sensor_type;location;lat;lon;timestamp;P1;durP1;ratioP1;P2;durP2;ratioP2
28587;SDS011;15787;49.662;10.162;2023-05-29T00:00:00;6.75;;;3.67;;
28587;SDS011;15787;49.662;10.162;2023-05-29T00:02:40;7.20;;;3.42;;
28587;SDS011;15787;49.662;10.162;2023-05-29T00:05:16;9.77;;;3.50;;
28587;SDS011;15787;49.662;10.162;2023-05-29T00:07:49;7.13;;;3.90;;
28587;SDS011;15787;49.662;10.162;2023-05-29T00:10:22;9.15;;;3.83;;
28587;SDS011;15787;49.662;10.162;2023-05-29T00:12:56;8.48;;;3.22;;
28587;SDS011;15787;49.662;10.162;2023-05-29T00:15:29;9.68;;;4.13;;
28587;SDS011;15787;49.662;10.162;2023-05-29T00:18:02;7.00;;;3.40;;
28587;SDS011;15787;49.662;10.162;2023-05-29T00:20:35;5.70;;;3.40;;
28587;SDS011;15787;49.662;10.162;2023-05-29T00:23:09;7.68;;;3.30;;
28587;SDS011;15787;49.662;10.162;2023-05-29T00:25:42;7.13;;;3.53;;
28587;SDS011;15787;49.662;10.162;2023-05-29T00:28:17;5.80;;;3.20;;
28587;SDS011;15787;49.662;10.162;2023-05-29T00:30:50;9.60;;;4.85;;
28587;SDS011;15787;49.662;10.162;2023-05-29T00:33:24;7.88;;;3.53;;
28587;SDS011;15787;49.662;10.162;2023-05-29T00:35:57;6.78;;;3.60;;
28587;SDS011;15787;49.662;10.162;2023-05-29T00:38:29;6.40;;;3.50;;
28587;SDS011;15787;49.662;10.162;2023-05-29T00:41:02;6.40;;;3.00;;
28587;SDS011;15787;49.662;10.162;2023-05-29T00:43:37;5.90;;;3.33;;
28587;SDS011;15787;49.662;10.162;2023-05-29T00:46:10;7.22;;;3.65;;
28587;SDS011;15787;49.662;10.162;2023-05-29T00:48:46;7.82;;;3.80;;
28587;SDS011;15787;49.662;10.162;2023-05-29T00:51:20;8.40;;;4.00;;
28587;SDS011;15787;49.662;10.162;2023-05-29T00:53:54;8.45;;;3.58;;
28587;SDS011;15787;49.662;10.162;2023-05-29T00:56:27;7.35;;;3.67;;
28587;SDS011;15787;49.662;10.162;2023-05-29T00:59:01;6.55;;;3.47;;
28587;SDS011;15787;49.662;10.162;2023-05-29T01:01:35;8.48;;;3.65;;
28587;SDS011;15787;49.662;10.162;2023-05-29T01:04:08;5.57;;;3.10;;
28587;SDS011;15787;49.662;10.162;2023-05-29T01:06:44;7.43;;;3.38;;
28587;SDS011;15787;49.662;10.162;2023-05-29T01:09:17;6.53;;;3.20;;
28587;SDS011;15787;49.662;10.162;2023-05-29T01:11:54;7.65;;;3.63;;
28587;SDS011;15787;49.662;10.162;2023-05-29T01:14:38;6.93;;;3.50;;
28587;SDS011;15787;49.662;10.162;2023-05-29T01:17:19;6.50;;;3.30;;
28587;SDS011;15787;49.662;10.162;2023-05-29T01:20:02;7.40;;;3.63;;
28587;SDS011;15787;49.662;10.162;2023-05-29T01:22:53;8.50;;;3.70;;
28587;SDS011;15787;49.662;10.162;2023-05-29T01:25:51;7.03;;;3.63;;
28587;SDS011;15787;49.662;10.162;2023-05-29T01:28:37;6.85;;;3.58;;
28587;SDS011;15787;49.662;10.162;2023-05-29T01:31:14;6.60;;;3.70;;
28587;SDS011;15787;49.662;10.162;2023-05-29T01:33:53;5.35;;;3.10;;
28587;SDS011;15787;49.662;10.162;2023-05-29T01:36:27;7.75;;;3.28;;
28587;SDS011;15787;49.662;10.162;2023-05-29T01:39:00;10.00;;;4.18;;
28587;SDS011;15787;49.662;10.162;2023-05-29T01:41:33;6.75;;;3.58;;
28587;SDS011;15787;49.662;10.162;2023-05-29T01:44:11;9.05;;;4.03;;
28587;SDS011;15787;49.662;10.162;2023-05-29T01:46:45;7.32;;;4.05;;
28587;SDS011;15787;49.662;10.162;2023-05-29T01:49:18;5.72;;;3.22;;
28587;SDS011;15787;49.662;10.162;2023-05-29T01:51:51;5.28;;;2.97;;
28587;SDS011;15787;49.662;10.162;2023-05-29T01:54:24;7.45;;;3.25;;
28587;SDS011;15787;49.662;10.162;2023-05-29T01:56:57;8.10;;;3.65;;
28587;SDS011;15787;49.662;10.162;2023-05-29T01:59:33;6.28;;;3.45;;
28587;SDS011;15787;49.662;10.162;2023-05-29T02:02:08;7.60;;;3.50;;
28587;SDS011;15787;49.662;10.162;2023-05-29T02:04:41;7.78;;;3.78;;
28587;SDS011;15787;49.662;10.162;2023-05-29T02:07:14;6.22;;;3.30;;
28587;SDS011;15787;49.662;10.162;2023-05-29T02:09:48;9.77;;;3.95;;
28587;SDS011;15787;49.662;10.162;2023-05-29T02:12:21;9.63;;;3.97;;
28587;SDS011;15787;49.662;10.162;2023-05-29T02:14:55;6.80;;;3.65;;
28587;SDS011;15787;49.662;10.162;2023-05-29T02:17:28;8.27;;;4.22;;
28587;SDS011;15787;49.662;10.162;2023-05-29T02:20:02;6.40;;;3.72;;
28587;SDS011;15787;49.662;10.162;2023-05-29T02:22:36;8.50;;;3.92;;
28587;SDS011;15787;49.662;10.162;2023-05-29T02:25:09;6.72;;;4.32;;
28587;SDS011;15787;49.662;10.162;2023-05-29T02:27:41;9.93;;;5.50;;
28587;SDS011;15787;49.662;10.162;2023-05-29T02:30:19;7.40;;;4.13;;
28587;SDS011;15787;49.662;10.162;2023-05-29T02:32:52;6.53;;;3.70;;
28587;SDS011;15787;49.662;10.162;2023-05-29T02:35:25;9.35;;;5.20;;
28587;SDS011;15787;49.662;10.162;2023-05-29T02:37:57;9.70;;;4.22;;
28587;SDS011;15787;49.662;10.162;2023-05-29T02:40:30;9.05;;;3.90;;
28587;SDS011;15787;49.662;10.162;2023-05-29T02:43:04;9.70;;;3.72;;
28587;SDS011;15787;49.662;10.162;2023-05-29T02:45:39;9.07;;;4.22;;
28587;SDS011;15787;49.662;10.162;2023-05-29T02:48:12;5.88;;;3.65;;
28587;SDS011;15787;49.662;10.162;2023-05-29T02:50:44;6.70;;;3.75;;
28587;SDS011;15787;49.662;10.162;2023-05-29T02:53:17;6.50;;;3.75;;
28587;SDS011;15787;49.662;10.162;2023-05-29T02:55:51;6.35;;;3.75;;
28587;SDS011;15787;49.662;10.162;2023-05-29T02:58:25;8.20;;;3.88;;
28587;SDS011;15787;49.662;10.162;2023-05-29T03:01:01;12.25;;;3.95;;
28587;SDS011;15787;49.662;10.162;2023-05-29T03:03:38;7.88;;;3.55;;
28587;SDS011;15787;49.662;10.162;2023-05-29T03:06:13;8.85;;;3.53;;
28587;SDS011;15787;49.662;10.162;2023-05-29T03:08:48;8.43;;;3.80;;
28587;SDS011;15787;49.662;10.162;2023-05-29T03:11:22;6.72;;;3.40;;
28587;SDS011;15787;49.662;10.162;2023-05-29T03:13:57;9.10;;;4.03;;
28587;SDS011;15787;49.662;10.162;2023-05-29T03:16:32;7.07;;;3.35;;
28587;SDS011;15787;49.662;10.162;2023-05-29T03:19:05;9.20;;;3.65;;
28587;SDS011;15787;49.662;10.162;2023-05-29T03:21:38;6.35;;;3.35;;
28587;SDS011;15787;49.662;10.162;2023-05-29T03:24:12;7.00;;;3.90;;
28587;SDS011;15787;49.662;10.162;2023-05-29T03:26:46;8.13;;;3.63;;
28587;SDS011;15787;49.662;10.162;2023-05-29T03:29:19;9.18;;;3.80;;
28587;SDS011;15787;49.662;10.162;2023-05-29T03:31:54;6.82;;;3.50;;
28587;SDS011;15787;49.662;10.162;2023-05-29T03:34:32;7.13;;;3.30;;
28587;SDS011;15787;49.662;10.162;2023-05-29T03:37:07;7.45;;;3.83;;
28587;SDS011;15787;49.662;10.162;2023-05-29T03:39:40;7.97;;;3.55;;
28587;SDS011;15787;49.662;10.162;2023-05-29T03:42:14;6.88;;;3.50;;
28587;SDS011;15787;49.662;10.162;2023-05-29T03:44:47;6.82;;;3.50;;
28587;SDS011;15787;49.662;10.162;2023-05-29T03:47:22;6.38;;;3.75;;
28587;SDS011;15787;49.662;10.162;2023-05-29T03:49:56;5.50;;;3.38;;
28587;SDS011;15787;49.662;10.162;2023-05-29T03:52:29;5.72;;;3.42;;
28587;SDS011;15787;49.662;10.162;2023-05-29T03:55:05;8.02;;;3.53;;
28587;SDS011;15787;49.662;10.162;2023-05-29T03:57:44;5.53;;;3.30;;
28587;SDS011;15787;49.662;10.162;2023-05-29T04:00:18;6.65;;;3.47;;
28587;SDS011;15787;49.662;10.162;2023-05-29T04:02:54;9.57;;;3.88;;
28587;SDS011;15787;49.662;10.162;2023-05-29T04:05:28;6.18;;;3.20;;
28587;SDS011;15787;49.662;10.162;2023-05-29T04:08:02;9.60;;;3.90;;
28587;SDS011;15787;49.662;10.162;2023-05-29T04:10:46;7.28;;;3.95;;
28587;SDS011;15787;49.662;10.162;2023-05-29T04:13:19;8.77;;;3.80;;
28587;SDS011;15787;49.662;10.162;2023-05-29T04:15:53;6.57;;;3.42;;
28587;SDS011;15787;49.662;10.162;2023-05-29T04:18:28;7.68;;;3.47;;
28587;SDS011;15787;49.662;10.162;2023-05-29T04:21:02;7.75;;;3.72;;
28587;SDS011;15787;49.662;10.162;2023-05-29T04:23:36;14.00;;;5.22;;
28587;SDS011;15787;49.662;10.162;2023-05-29T04:26:09;7.53;;;4.40;;
28587;SDS011;15787;49.662;10.162;2023-05-29T04:28:44;7.60;;;3.45;;
28587;SDS011;15787;49.662;10.162;2023-05-29T04:31:17;6.30;;;3.70;;
28587;SDS011;15787;49.662;10.162;2023-05-29T04:33:55;6.43;;;3.42;;
28587;SDS011;15787;49.662;10.162;2023-05-29T04:36:29;6.93;;;3.95;;
28587;SDS011;15787;49.662;10.162;2023-05-29T04:39:11;6.47;;;3.65;;
28587;SDS011;15787;49.662;10.162;2023-05-29T04:41:44;6.72;;;3.95;;
28587;SDS011;15787;49.662;10.162;2023-05-29T04:44:20;10.05;;;4.07;;
28587;SDS011;15787;49.662;10.162;2023-05-29T04:46:57;7.82;;;3.75;;
28587;SDS011;15787;49.662;10.162;2023-05-29T04:49:31;7.57;;;4.43;;
28587;SDS011;15787;49.662;10.162;2023-05-29T04:52:04;8.25;;;4.10;;
28587;SDS011;15787;49.662;10.162;2023-05-29T04:54:37;8.73;;;4.50;;
28587;SDS011;15787;49.662;10.162;2023-05-29T04:57:10;6.72;;;4.07;;
28587;SDS011;15787;49.662;10.162;2023-05-29T04:59:44;6.75;;;3.78;;
28587;SDS011;15787;49.662;10.162;2023-05-29T05:02:17;8.88;;;4.15;;
28587;SDS011;15787;49.662;10.162;2023-05-29T05:04:51;8.65;;;4.38;;
28587;SDS011;15787;49.662;10.162;2023-05-29T05:07:24;12.07;;;5.65;;
28587;SDS011;15787;49.662;10.162;2023-05-29T05:09:57;8.80;;;4.70;;
28587;SDS011;15787;49.662;10.162;2023-05-29T05:12:31;8.90;;;5.07;;
28587;SDS011;15787;49.662;10.162;2023-05-29T05:15:06;11.85;;;5.57;;
28587;SDS011;15787;49.662;10.162;2023-05-29T05:17:40;9.45;;;4.78;;
28587;SDS011;15787;49.662;10.162;2023-05-29T05:20:15;12.32;;;5.13;;
28587;SDS011;15787;49.662;10.162;2023-05-29T05:22:52;9.82;;;4.80;;
28587;SDS011;15787;49.662;10.162;2023-05-29T05:25:27;13.07;;;4.97;;
28587;SDS011;15787;49.662;10.162;2023-05-29T05:28:00;9.93;;;5.53;;
28587;SDS011;15787;49.662;10.162;2023-05-29T05:30:35;10.00;;;4.15;;
28587;SDS011;15787;49.662;10.162;2023-05-29T05:33:08;9.02;;;4.78;;
28587;SDS011;15787;49.662;10.162;2023-05-29T05:35:43;8.20;;;4.78;;
28587;SDS011;15787;49.662;10.162;2023-05-29T05:38:16;10.38;;;4.88;;
28587;SDS011;15787;49.662;10.162;2023-05-29T05:40:49;10.13;;;4.30;;
28587;SDS011;15787;49.662;10.162;2023-05-29T05:43:28;8.65;;;3.95;;
28587;SDS011;15787;49.662;10.162;2023-05-29T05:46:12;10.32;;;4.13;;
28587;SDS011;15787;49.662;10.162;2023-05-29T05:48:46;9.20;;;4.00;;
28587;SDS011;15787;49.662;10.162;2023-05-29T05:51:21;8.60;;;3.83;;
28587;SDS011;15787;49.662;10.162;2023-05-29T05:53:55;9.38;;;4.85;;
28587;SDS011;15787;49.662;10.162;2023-05-29T05:56:30;8.93;;;4.20;;
28587;SDS011;15787;49.662;10.162;2023-05-29T05:59:03;6.22;;;3.50;;
28587;SDS011;15787;49.662;10.162;2023-05-29T06:01:37;8.75;;;3.22;;
28587;SDS011;15787;49.662;10.162;2023-05-29T06:04:10;8.13;;;3.60;;
28587;SDS011;15787;49.662;10.162;2023-05-29T06:06:44;10.23;;;4.15;;
28587;SDS011;15787;49.662;10.162;2023-05-29T06:09:17;9.82;;;3.35;;
28587;SDS011;15787;49.662;10.162;2023-05-29T06:11:53;6.47;;;3.55;;
28587;SDS011;15787;49.662;10.162;2023-05-29T06:14:27;7.38;;;3.53;;
28587;SDS011;15787;49.662;10.162;2023-05-29T06:17:00;5.38;;;3.55;;
28587;SDS011;15787;49.662;10.162;2023-05-29T06:19:33;5.45;;;3.00;;
28587;SDS011;15787;49.662;10.162;2023-05-29T06:22:07;6.93;;;3.17;;
28587;SDS011;15787;49.662;10.162;2023-05-29T06:24:42;6.45;;;3.20;;
28587;SDS011;15787;49.662;10.162;2023-05-29T06:27:15;7.63;;;3.20;;
28587;SDS011;15787;49.662;10.162;2023-05-29T06:29:49;6.75;;;3.58;;
28587;SDS011;15787;49.662;10.162;2023-05-29T06:32:22;8.77;;;3.47;;
28587;SDS011;15787;49.662;10.162;2023-05-29T06:34:55;7.68;;;3.35;;
28587;SDS011;15787;49.662;10.162;2023-05-29T06:37:30;8.32;;;2.95;;
28587;SDS011;15787;49.662;10.162;2023-05-29T06:40:03;6.72;;;3.58;;
28587;SDS011;15787;49.662;10.162;2023-05-29T06:42:38;4.85;;;2.97;;
28587;SDS011;15787;49.662;10.162;2023-05-29T06:45:18;6.03;;;2.72;;
28587;SDS011;15787;49.662;10.162;2023-05-29T06:47:51;5.50;;;2.63;;
28587;SDS011;15787;49.662;10.162;2023-05-29T06:50:24;7.32;;;2.65;;
28587;SDS011;15787;49.662;10.162;2023-05-29T06:52:59;9.20;;;3.08;;
28587;SDS011;15787;49.662;10.162;2023-05-29T06:55:39;8.30;;;3.10;;
28587;SDS011;15787;49.662;10.162;2023-05-29T06:58:15;6.25;;;2.75;;
28587;SDS011;15787;49.662;10.162;2023-05-29T07:00:48;6.43;;;2.58;;
28587;SDS011;15787;49.662;10.162;2023-05-29T07:03:34;4.65;;;2.50;;
28587;SDS011;15787;49.662;10.162;2023-05-29T07:06:09;6.75;;;2.80;;
28587;SDS011;15787;49.662;10.162;2023-05-29T07:08:43;5.68;;;3.00;;
28587;SDS011;15787;49.662;10.162;2023-05-29T07:11:16;6.20;;;2.90;;
28587;SDS011;15787;49.662;10.162;2023-05-29T07:13:49;8.65;;;2.78;;
28587;SDS011;15787;49.662;10.162;2023-05-29T07:16:25;7.68;;;2.70;;
28587;SDS011;15787;49.662;10.162;2023-05-29T07:19:03;5.55;;;2.85;;
28587;SDS011;15787;49.662;10.162;2023-05-29T07:21:40;5.85;;;3.10;;
28587;SDS011;15787;49.662;10.162;2023-05-29T07:24:14;8.93;;;2.70;;
28587;SDS011;15787;49.662;10.162;2023-05-29T07:26:47;4.35;;;2.85;;
28587;SDS011;15787;49.662;10.162;2023-05-29T07:29:21;5.25;;;3.20;;
28587;SDS011;15787;49.662;10.162;2023-05-29T07:31:57;7.65;;;2.88;;
28587;SDS011;15787;49.662;10.162;2023-05-29T07:34:30;9.75;;;3.03;;
28587;SDS011;15787;49.662;10.162;2023-05-29T07:37:03;4.50;;;2.72;;
28587;SDS011;15787;49.662;10.162;2023-05-29T07:39:40;6.60;;;2.47;;
28587;SDS011;15787;49.662;10.162;2023-05-29T07:42:32;4.53;;;2.35;;
28587;SDS011;15787;49.662;10.162;2023-05-29T07:45:07;6.07;;;2.60;;
28587;SDS011;15787;49.662;10.162;2023-05-29T07:47:41;6.35;;;2.40;;
28587;SDS011;15787;49.662;10.162;2023-05-29T07:50:15;5.90;;;2.72;;
28587;SDS011;15787;49.662;10.162;2023-05-29T07:52:48;7.47;;;2.67;;
28587;SDS011;15787;49.662;10.162;2023-05-29T07:55:23;6.13;;;2.45;;
28587;SDS011;15787;49.662;10.162;2023-05-29T07:57:56;4.68;;;2.33;;
28587;SDS011;15787;49.662;10.162;2023-05-29T08:00:29;5.40;;;2.60;;
28587;SDS011;15787;49.662;10.162;2023-05-29T08:03:02;12.20;;;3.22;;
28587;SDS011;15787;49.662;10.162;2023-05-29T08:05:35;4.90;;;2.45;;
28587;SDS011;15787;49.662;10.162;2023-05-29T08:08:14;5.43;;;2.55;;
28587;SDS011;15787;49.662;10.162;2023-05-29T08:10:54;6.05;;;2.45;;
28587;SDS011;15787;49.662;10.162;2023-05-29T08:17:48;5.28;;;2.50;;
28587;SDS011;15787;49.662;10.162;2023-05-29T08:20:21;6.13;;;2.55;;
28587;SDS011;15787;49.662;10.162;2023-05-29T08:22:54;6.85;;;2.75;;
28587;SDS011;15787;49.662;10.162;2023-05-29T08:25:27;4.18;;;2.17;;
28587;SDS011;15787;49.662;10.162;2023-05-29T08:28:01;5.80;;;2.90;;
28587;SDS011;15787;49.662;10.162;2023-05-29T08:30:34;6.78;;;2.85;;
28587;SDS011;15787;49.662;10.162;2023-05-29T08:33:08;7.60;;;2.80;;
28587;SDS011;15787;49.662;10.162;2023-05-29T08:35:41;8.15;;;2.50;;
28587;SDS011;15787;49.662;10.162;2023-05-29T08:38:14;8.90;;;3.03;;
28587;SDS011;15787;49.662;10.162;2023-05-29T08:40:47;5.90;;;3.05;;
28587;SDS011;15787;49.662;10.162;2023-05-29T08:43:22;6.35;;;2.55;;
28587;SDS011;15787;49.662;10.162;2023-05-29T08:45:58;4.80;;;2.30;;
28587;SDS011;15787;49.662;10.162;2023-05-29T08:48:32;4.28;;;1.83;;
28587;SDS011;15787;49.662;10.162;2023-05-29T08:51:12;4.55;;;2.28;;
28587;SDS011;15787;49.662;10.162;2023-05-29T08:53:46;5.55;;;2.55;;
28587;SDS011;15787;49.662;10.162;2023-05-29T08:56:20;5.65;;;2.72;;
28587;SDS011;15787;49.662;10.162;2023-05-29T08:59:06;4.43;;;2.33;;
28587;SDS011;15787;49.662;10.162;2023-05-29T09:01:41;7.40;;;2.55;;
28587;SDS011;15787;49.662;10.162;2023-05-29T09:04:15;4.70;;;2.50;;
28587;SDS011;15787;49.662;10.162;2023-05-29T09:06:52;7.15;;;2.75;;
28587;SDS011;15787;49.662;10.162;2023-05-29T09:09:26;4.35;;;1.98;;
28587;SDS011;15787;49.662;10.162;2023-05-29T09:12:00;6.18;;;2.30;;
28587;SDS011;15787;49.662;10.162;2023-05-29T09:14:37;5.55;;;2.65;;
28587;SDS011;15787;49.662;10.162;2023-05-29T09:17:12;6.00;;;2.90;;
28587;SDS011;15787;49.662;10.162;2023-05-29T09:19:50;5.55;;;2.53;;
28587;SDS011;15787;49.662;10.162;2023-05-29T09:22:26;7.07;;;2.08;;
28587;SDS011;15787;49.662;10.162;2023-05-29T09:25:00;4.47;;;2.30;;
28587;SDS011;15787;49.662;10.162;2023-05-29T09:27:34;3.50;;;2.10;;
28587;SDS011;15787;49.662;10.162;2023-05-29T09:30:14;8.95;;;2.22;;
28587;SDS011;15787;49.662;10.162;2023-05-29T09:33:04;4.15;;;2.17;;
28587;SDS011;15787;49.662;10.162;2023-05-29T09:35:40;3.28;;;2.03;;
28587;SDS011;15787;49.662;10.162;2023-05-29T09:38:14;5.65;;;2.50;;
28587;SDS011;15787;49.662;10.162;2023-05-29T09:40:52;3.90;;;2.25;;
28587;SDS011;15787;49.662;10.162;2023-05-29T09:43:30;11.85;;;2.90;;
28587;SDS011;15787;49.662;10.162;2023-05-29T09:46:06;6.25;;;2.63;;
28587;SDS011;15787;49.662;10.162;2023-05-29T09:48:39;4.80;;;2.22;;
28587;SDS011;15787;49.662;10.162;2023-05-29T09:51:19;4.32;;;2.05;;
28587;SDS011;15787;49.662;10.162;2023-05-29T09:53:53;6.38;;;3.13;;
28587;SDS011;15787;49.662;10.162;2023-05-29T09:56:28;5.15;;;2.47;;
28587;SDS011;15787;49.662;10.162;2023-05-29T09:59:03;4.05;;;2.15;;
28587;SDS011;15787;49.662;10.162;2023-05-29T10:01:40;3.75;;;2.05;;
28587;SDS011;15787;49.662;10.162;2023-05-29T10:04:15;4.80;;;2.22;;
28587;SDS011;15787;49.662;10.162;2023-05-29T10:09:31;5.15;;;2.47;;
28587;SDS011;15787;49.662;10.162;2023-05-29T10:12:07;3.30;;;1.95;;
28587;SDS011;15787;49.662;10.162;2023-05-29T10:14:48;6.22;;;2.65;;
28587;SDS011;15787;49.662;10.162;2023-05-29T10:17:28;5.20;;;2.17;;
28587;SDS011;15787;49.662;10.162;2023-05-29T10:20:12;7.40;;;2.75;;
28587;SDS011;15787;49.662;10.162;2023-05-29T10:22:54;4.75;;;2.13;;
28587;SDS011;15787;49.662;10.162;2023-05-29T10:25:38;3.63;;;2.00;;
28587;SDS011;15787;49.662;10.162;2023-05-29T10:28:21;4.05;;;2.33;;
28587;SDS011;15787;49.662;10.162;2023-05-29T10:31:00;3.13;;;2.15;;
28587;SDS011;15787;49.662;10.162;2023-05-29T10:33:46;6.30;;;2.33;;
28587;SDS011;15787;49.662;10.162;2023-05-29T10:36:28;5.88;;;2.25;;
28587;SDS011;15787;49.662;10.162;2023-05-29T10:45:48;3.10;;;2.20;;
28587;SDS011;15787;49.662;10.162;2023-05-29T10:48:58;8.75;;;2.55;;
28587;SDS011;15787;49.662;10.162;2023-05-29T10:55:48;4.47;;;2.10;;
28587;SDS011;15787;49.662;10.162;2023-05-29T11:39:05;2.70;;;1.73;;
28587;SDS011;15787;49.662;10.162;2023-05-29T11:41:38;3.28;;;1.95;;
28587;SDS011;15787;49.662;10.162;2023-05-29T11:44:13;4.97;;;2.10;;
28587;SDS011;15787;49.662;10.162;2023-05-29T11:46:47;3.65;;;1.88;;
28587;SDS011;15787;49.662;10.162;2023-05-29T11:49:39;4.00;;;1.92;;
28587;SDS011;15787;49.662;10.162;2023-05-29T11:52:14;4.17;;;2.23;;
28587;SDS011;15787;49.662;10.162;2023-05-29T11:54:49;5.18;;;2.15;;
28587;SDS011;15787;49.662;10.162;2023-05-29T11:57:37;5.63;;;2.37;;
28587;SDS011;15787;49.662;10.162;2023-05-29T12:00:12;2.38;;;1.67;;
28587;SDS011;15787;49.662;10.162;2023-05-29T12:02:49;3.47;;;2.08;;
28587;SDS011;15787;49.662;10.162;2023-05-29T12:08:29;4.97;;;3.00;;
28587;SDS011;15787;49.662;10.162;2023-05-29T12:11:02;6.38;;;2.50;;
28587;SDS011;15787;49.662;10.162;2023-05-29T12:13:35;5.00;;;2.50;;
28587;SDS011;15787;49.662;10.162;2023-05-29T12:16:08;4.78;;;2.33;;
28587;SDS011;15787;49.662;10.162;2023-05-29T12:18:41;6.30;;;2.10;;
28587;SDS011;15787;49.662;10.162;2023-05-29T12:21:15;4.50;;;2.15;;
28587;SDS011;15787;49.662;10.162;2023-05-29T12:23:50;5.70;;;2.60;;
28587;SDS011;15787;49.662;10.162;2023-05-29T12:29:32;7.57;;;2.40;;
28587;SDS011;15787;49.662;10.162;2023-05-29T12:32:10;4.82;;;2.20;;
28587;SDS011;15787;49.662;10.162;2023-05-29T12:34:50;5.50;;;3.22;;
28587;SDS011;15787;49.662;10.162;2023-05-29T12:37:41;5.30;;;2.50;;
28587;SDS011;15787;49.662;10.162;2023-05-29T12:40:31;4.32;;;2.40;;
28587;SDS011;15787;49.662;10.162;2023-05-29T12:43:30;4.53;;;2.42;;
28587;SDS011;15787;49.662;10.162;2023-05-29T12:46:15;5.30;;;2.72;;
28587;SDS011;15787;49.662;10.162;2023-05-29T12:49:51;11.30;;;2.58;;
28587;SDS011;15787;49.662;10.162;2023-05-29T12:53:38;4.70;;;2.30;;
28587;SDS011;15787;49.662;10.162;2023-05-29T12:56:26;5.88;;;2.30;;
28587;SDS011;15787;49.662;10.162;2023-05-29T12:58:59;3.63;;;2.40;;
28587;SDS011;15787;49.662;10.162;2023-05-29T13:01:38;5.38;;;2.30;;
28587;SDS011;15787;49.662;10.162;2023-05-29T13:04:17;9.50;;;2.40;;
28587;SDS011;15787;49.662;10.162;2023-05-29T13:06:54;5.72;;;2.95;;
28587;SDS011;15787;49.662;10.162;2023-05-29T13:09:29;4.35;;;2.55;;
28587;SDS011;15787;49.662;10.162;2023-05-29T13:12:17;5.57;;;2.67;;
28587;SDS011;15787;49.662;10.162;2023-05-29T13:15:05;4.65;;;2.50;;
28587;SDS011;15787;49.662;10.162;2023-05-29T13:18:00;6.00;;;2.83;;
28587;SDS011;15787;49.662;10.162;2023-05-29T13:20:57;8.48;;;2.95;;
28587;SDS011;15787;49.662;10.162;2023-05-29T13:23:39;4.95;;;2.70;;
28587;SDS011;15787;49.662;10.162;2023-05-29T13:26:22;4.53;;;2.55;;
28587;SDS011;15787;49.662;10.162;2023-05-29T13:29:29;5.25;;;2.72;;
28587;SDS011;15787;49.662;10.162;2023-05-29T13:32:09;4.63;;;2.58;;
28587;SDS011;15787;49.662;10.162;2023-05-29T13:34:52;3.20;;;2.38;;
28587;SDS011;15787;49.662;10.162;2023-05-29T13:37:29;3.90;;;2.65;;
28587;SDS011;15787;49.662;10.162;2023-05-29T13:40:03;5.05;;;2.63;;
28587;SDS011;15787;49.662;10.162;2023-05-29T13:42:52;5.20;;;2.25;;
28587;SDS011;15787;49.662;10.162;2023-05-29T13:45:32;5.43;;;3.15;;
28587;SDS011;15787;49.662;10.162;2023-05-29T13:48:37;5.45;;;2.95;;
28587;SDS011;15787;49.662;10.162;2023-05-29T13:51:17;5.10;;;2.63;;
28587;SDS011;15787;49.662;10.162;2023-05-29T13:54:16;4.93;;;2.75;;
28587;SDS011;15787;49.662;10.162;2023-05-29T13:57:26;3.38;;;2.75;;
28587;SDS011;15787;49.662;10.162;2023-05-29T14:00:09;6.70;;;2.58;;
28587;SDS011;15787;49.662;10.162;2023-05-29T14:02:47;3.92;;;2.58;;
28587;SDS011;15787;49.662;10.162;2023-05-29T14:05:24;8.55;;;2.60;;
28587;SDS011;15787;49.662;10.162;2023-05-29T14:08:04;3.55;;;2.45;;
28587;SDS011;15787;49.662;10.162;2023-05-29T14:10:38;5.22;;;2.63;;
28587;SDS011;15787;49.662;10.162;2023-05-29T14:13:14;5.50;;;3.20;;
28587;SDS011;15787;49.662;10.162;2023-05-29T14:15:51;4.32;;;2.83;;
28587;SDS011;15787;49.662;10.162;2023-05-29T14:18:29;6.20;;;2.88;;
28587;SDS011;15787;49.662;10.162;2023-05-29T14:21:08;4.63;;;2.90;;
28587;SDS011;15787;49.662;10.162;2023-05-29T14:23:46;4.68;;;2.75;;
28587;SDS011;15787;49.662;10.162;2023-05-29T14:26:23;6.50;;;2.83;;
28587;SDS011;15787;49.662;10.162;2023-05-29T14:28:58;4.45;;;2.55;;
28587;SDS011;15787;49.662;10.162;2023-05-29T14:34:43;4.90;;;2.70;;
28587;SDS011;15787;49.662;10.162;2023-05-29T14:37:25;5.50;;;3.33;;
28587;SDS011;15787;49.662;10.162;2023-05-29T14:40:05;5.95;;;2.80;;
28587;SDS011;15787;49.662;10.162;2023-05-29T14:43:07;6.25;;;3.33;;
28587;SDS011;15787;49.662;10.162;2023-05-29T14:45:42;5.25;;;2.80;;
28587;SDS011;15787;49.662;10.162;2023-05-29T14:51:31;7.43;;;3.28;;
28587;SDS011;15787;49.662;10.162;2023-05-29T14:54:06;4.93;;;3.05;;
28587;SDS011;15787;49.662;10.162;2023-05-29T14:56:54;7.57;;;3.22;;
28587;SDS011;15787;49.662;10.162;2023-05-29T14:59:31;6.22;;;3.35;;
28587;SDS011;15787;49.662;10.162;2023-05-29T15:02:05;5.22;;;3.00;;
28587;SDS011;15787;49.662;10.162;2023-05-29T15:04:42;5.75;;;2.80;;
28587;SDS011;15787;49.662;10.162;2023-05-29T15:07:23;6.03;;;3.03;;
28587;SDS011;15787;49.662;10.162;2023-05-29T15:09:59;4.90;;;2.55;;
28587;SDS011;15787;49.662;10.162;2023-05-29T15:12:35;5.20;;;2.80;;
28587;SDS011;15787;49.662;10.162;2023-05-29T15:15:12;5.32;;;2.95;;
28587;SDS011;15787;49.662;10.162;2023-05-29T15:17:47;5.95;;;3.15;;
28587;SDS011;15787;49.662;10.162;2023-05-29T15:20:27;5.47;;;2.75;;
28587;SDS011;15787;49.662;10.162;2023-05-29T15:23:02;7.07;;;3.55;;
28587;SDS011;15787;49.662;10.162;2023-05-29T15:25:39;6.05;;;3.03;;
28587;SDS011;15787;49.662;10.162;2023-05-29T15:28:15;8.30;;;2.85;;
28587;SDS011;15787;49.662;10.162;2023-05-29T15:30:55;5.57;;;2.65;;
28587;SDS011;15787;49.662;10.162;2023-05-29T15:33:35;3.70;;;2.60;;
28587;SDS011;15787;49.662;10.162;2023-05-29T15:36:12;4.40;;;2.60;;
28587;SDS011;15787;49.662;10.162;2023-05-29T15:43:20;7.78;;;3.70;;
28587;SDS011;15787;49.662;10.162;2023-05-29T15:46:00;5.68;;;3.30;;
28587;SDS011;15787;49.662;10.162;2023-05-29T15:48:46;4.90;;;3.00;;
28587;SDS011;15787;49.662;10.162;2023-05-29T15:51:26;5.32;;;3.30;;
28587;SDS011;15787;49.662;10.162;2023-05-29T16:06:21;5.30;;;2.90;;
28587;SDS011;15787;49.662;10.162;2023-05-29T16:08:55;4.20;;;2.55;;
28587;SDS011;15787;49.662;10.162;2023-05-29T16:11:28;5.22;;;3.08;;
28587;SDS011;15787;49.662;10.162;2023-05-29T16:14:03;6.20;;;2.75;;
28587;SDS011;15787;49.662;10.162;2023-05-29T16:16:43;4.97;;;3.15;;
28587;SDS011;15787;49.662;10.162;2023-05-29T16:19:25;5.43;;;3.20;;
28587;SDS011;15787;49.662;10.162;2023-05-29T16:21:59;5.78;;;2.95;;
28587;SDS011;15787;49.662;10.162;2023-05-29T16:24:32;7.03;;;2.95;;
28587;SDS011;15787;49.662;10.162;2023-05-29T16:27:08;5.57;;;3.15;;
28587;SDS011;15787;49.662;10.162;2023-05-29T16:29:47;8.50;;;4.60;;
28587;SDS011;15787;49.662;10.162;2023-05-29T16:32:20;7.35;;;3.30;;
28587;SDS011;15787;49.662;10.162;2023-05-29T16:34:54;6.07;;;3.33;;
28587;SDS011;15787;49.662;10.162;2023-05-29T16:37:29;6.63;;;3.45;;
28587;SDS011;15787;49.662;10.162;2023-05-29T16:40:02;5.28;;;2.97;;
28587;SDS011;15787;49.662;10.162;2023-05-29T16:42:36;4.45;;;3.05;;
28587;SDS011;15787;49.662;10.162;2023-05-29T16:45:11;6.20;;;3.00;;
28587;SDS011;15787;49.662;10.162;2023-05-29T16:47:44;6.30;;;3.83;;
28587;SDS011;15787;49.662;10.162;2023-05-29T16:50:17;10.95;;;6.10;;
28587;SDS011;15787;49.662;10.162;2023-05-29T16:52:54;5.32;;;3.30;;
28587;SDS011;15787;49.662;10.162;2023-05-29T16:55:28;8.55;;;3.72;;
28587;SDS011;15787;49.662;10.162;2023-05-29T16:58:02;6.53;;;2.92;;